Time;durP1;ratioP1;P1;durP2;ratioP2;P2;SDS_P1;SDS_P2;PMS_P1;PMS_P2;Temp;Humidity;BMP_temperature;BMP_pressure;BME280_temperature;BME280_humidity;BME280_pressure;Samples;Min_cycle;Max_cycle;Signal;HPM_P1;HPM_P2
2021/08/15 00:01:49;;;;;;;34.75;15.68;;;13.10;99.90;;;;;;4988079;28;20054;-80
2021/08/15 00:04:17;;;;;;;30.20;16.30;;;13.00;99.90;;;;;;4989384;28;20066;-80
2021/08/15 00:06:43;;;;;;;32.95;17.33;;;13.20;99.90;;;;;;4990051;28;20049;-80
2021/08/15 00:09:10;;;;;;;27.38;16.17;;;13.20;99.90;;;;;;4977645;28;20053;-80
2021/08/15 00:11:37;;;;;;;33.33;15.13;;;13.10;99.90;;;;;;5025036;28;20053;-79
2021/08/15 00:14:04;;;;;;;24.17;14.00;;;13.00;99.90;;;;;;4969539;28;20043;-79
2021/08/15 00:16:32;;;;;;;26.23;13.80;;;12.90;99.90;;;;;;4964688;28;20066;-80
2021/08/15 00:19:05;;;;;;;28.23;14.85;;;12.90;99.90;;;;;;5005192;28;20085;-81
2021/08/15 00:21:33;;;;;;;27.23;16.08;;;12.90;99.90;;;;;;4988948;28;20459;-81
2021/08/15 00:24:00;;;;;;;32.45;17.58;;;12.90;99.90;;;;;;4989612;28;20345;-80
2021/08/15 00:26:27;;;;;;;36.35;17.05;;;12.90;99.90;;;;;;4989348;28;20050;-80
2021/08/15 00:28:54;;;;;;;43.00;19.27;;;12.80;99.90;;;;;;5005791;28;20100;-80
2021/08/15 00:31:21;;;;;;;37.08;18.55;;;12.90;99.90;;;;;;4988138;28;20057;-80
2021/08/15 00:33:48;;;;;;;28.20;14.48;;;13.00;99.90;;;;;;4969737;28;20233;-80
2021/08/15 00:36:15;;;;;;;25.85;15.20;;;12.90;99.90;;;;;;5004213;28;20062;-80
2021/08/15 00:38:41;;;;;;;29.90;14.55;;;12.80;99.90;;;;;;5017510;28;20125;-80
2021/08/15 00:41:09;;;;;;;22.40;14.48;;;12.80;99.90;;;;;;5020392;28;20322;-80
2021/08/15 00:43:35;;;;;;;33.17;15.25;;;12.70;99.90;;;;;;4983975;28;20058;-80
2021/08/15 00:46:10;;;;;;;31.33;16.45;;;12.70;99.90;;;;;;4988806;28;20575;-79
2021/08/15 00:48:37;;;;;;;30.50;15.80;;;12.70;99.90;;;;;;4996111;28;20502;-80
2021/08/15 00:51:05;;;;;;;26.65;13.00;;;12.50;99.90;;;;;;4992951;28;20466;-80
2021/08/15 00:53:36;;;;;;;25.15;13.65;;;12.50;99.90;;;;;;4993126;28;20041;-81
2021/08/15 00:56:04;;;;;;;28.15;14.52;;;12.40;99.90;;;;;;4993167;28;20046;-80
2021/08/15 00:58:35;;;;;;;32.95;13.73;;;12.40;99.90;;;;;;4977558;28;20200;-79
2021/08/15 01:01:07;;;;;;;26.38;14.88;;;12.30;99.90;;;;;;4992867;28;20054;-80
2021/08/15 01:03:35;;;;;;;24.88;13.90;;;12.20;99.90;;;;;;4997015;28;20053;-80
2021/08/15 01:06:02;;;;;;;25.42;14.88;;;12.30;99.90;;;;;;5011284;28;20080;-80
2021/08/15 01:08:38;;;;;;;21.50;14.20;;;12.20;99.90;;;;;;5028656;28;20076;-80
2021/08/15 01:11:07;;;;;;;26.92;14.63;;;12.20;99.90;;;;;;4986332;28;20045;-80
2021/08/15 01:13:36;;;;;;;25.25;14.55;;;12.10;99.90;;;;;;5002910;28;20058;-80
2021/08/15 01:16:07;;;;;;;26.00;14.70;;;12.10;99.90;;;;;;4992762;28;20061;-80
2021/08/15 01:18:36;;;;;;;27.02;14.48;;;12.20;99.90;;;;;;4993889;28;20148;-79
2021/08/15 01:21:10;;;;;;;26.08;14.38;;;12.10;99.90;;;;;;4976729;28;20049;-80
2021/08/15 01:23:39;;;;;;;29.40;15.73;;;12.20;99.90;;;;;;4994628;28;20486;-80
2021/08/15 01:26:09;;;;;;;25.42;14.25;;;12.20;99.90;;;;;;4993338;28;20121;-80
2021/08/15 01:28:36;;;;;;;26.98;15.25;;;12.10;99.90;;;;;;4978493;28;20077;-80
2021/08/15 01:31:03;;;;;;;28.80;15.70;;;12.10;99.90;;;;;;5011556;28;20050;-80
2021/08/15 01:33:33;;;;;;;32.20;14.70;;;12.10;99.90;;;;;;5012096;28;20069;-80
2021/08/15 01:36:01;;;;;;;26.05;15.52;;;12.10;99.90;;;;;;5009852;28;20053;-79
2021/08/15 01:38:30;;;;;;;26.20;14.70;;;12.00;99.90;;;;;;5048523;28;20034;-79
2021/08/15 01:40:57;;;;;;;26.75;15.55;;;11.90;99.90;;;;;;5040768;28;20050;-80
2021/08/15 01:43:25;;;;;;;28.25;15.88;;;12.00;99.90;;;;;;5017603;28;20085;-80
2021/08/15 01:45:52;;;;;;;28.60;15.43;;;11.90;99.90;;;;;;5027895;28;20040;-79
2021/08/15 01:48:19;;;;;;;32.08;14.35;;;12.00;99.90;;;;;;5029140;28;20102;-80
2021/08/15 01:50:47;;;;;;;21.98;13.85;;;12.10;99.90;;;;;;5012525;28;20050;-80
2021/08/15 01:53:22;;;;;;;33.95;16.83;;;12.10;99.90;;;;;;5028275;28;20042;-80
2021/08/15 01:55:49;;;;;;;27.98;15.68;;;12.10;99.90;;;;;;5012233;28;20045;-80
2021/08/15 01:58:16;;;;;;;33.45;16.40;;;12.10;99.90;;;;;;5011574;28;20361;-80
2021/08/15 02:00:44;;;;;;;27.25;15.43;;;12.10;99.90;;;;;;4994234;28;20156;-80
2021/08/15 02:03:11;;;;;;;30.30;16.25;;;12.00;99.90;;;;;;4989697;28;20073;-80
2021/08/15 02:05:41;;;;;;;25.90;14.65;;;11.90;99.90;;;;;;4984966;28;20537;-80
2021/08/15 02:08:08;;;;;;;24.65;13.75;;;11.80;99.90;;;;;;4994639;28;20046;-79
2021/08/15 02:10:36;;;;;;;21.92;12.70;;;11.70;99.90;;;;;;5020228;28;20060;-80
2021/08/15 02:13:05;;;;;;;30.40;15.00;;;11.70;99.90;;;;;;5008259;28;20038;-80
2021/08/15 02:15:32;;;;;;;24.13;13.80;;;11.70;99.90;;;;;;5010866;28;20088;-80
2021/08/15 02:18:01;;;;;;;29.90;15.98;;;11.80;99.90;;;;;;5000442;28;20050;-80
2021/08/15 02:20:30;;;;;;;28.35;15.98;;;11.80;99.90;;;;;;5002807;28;20054;-80
2021/08/15 02:22:57;;;;;;;34.63;16.33;;;11.60;99.90;;;;;;4982955;28;20058;-80
2021/08/15 02:25:25;;;;;;;30.20;15.50;;;11.60;99.90;;;;;;4980799;28;20065;-80
2021/08/15 02:27:52;;;;;;;28.92;16.48;;;11.50;99.90;;;;;;5007515;28;20042;-79
2021/08/15 02:30:23;;;;;;;23.08;15.02;;;11.60;99.90;;;;;;5011549;28;20144;-80
2021/08/15 02:32:52;;;;;;;28.77;14.77;;;11.70;99.90;;;;;;5012301;28;20056;-80
2021/08/15 02:35:19;;;;;;;26.13;15.63;;;11.80;99.90;;;;;;5011382;28;20790;-79
2021/08/15 02:37:49;;;;;;;32.60;15.63;;;11.70;99.90;;;;;;5012856;28;20026;-79
2021/08/15 02:40:18;;;;;;;22.38;14.75;;;11.80;99.90;;;;;;5025430;28;20288;-79
2021/08/15 02:42:47;;;;;;;27.95;16.58;;;11.80;99.90;;;;;;5022899;28;20045;-80
2021/08/15 02:45:16;;;;;;;31.02;15.88;;;11.70;99.90;;;;;;4995975;28;20121;-79
2021/08/15 02:47:43;;;;;;;31.60;16.50;;;11.70;99.90;;;;;;5012594;28;20038;-79
2021/08/15 02:50:11;;;;;;;27.10;15.55;;;11.80;99.90;;;;;;5011332;28;20068;-80
2021/08/15 02:52:38;;;;;;;23.17;14.45;;;11.70;99.90;;;;;;5022933;28;20067;-78
2021/08/15 02:55:06;;;;;;;25.83;14.95;;;11.60;99.90;;;;;;5009823;28;20045;-79
2021/08/15 02:57:33;;;;;;;29.42;15.95;;;11.70;99.90;;;;;;5006750;28;20104;-80
2021/08/15 03:00:00;;;;;;;25.92;15.27;;;11.80;99.90;;;;;;4990273;28;20124;-79
2021/08/15 03:02:27;;;;;;;34.50;20.20;;;11.80;99.90;;;;;;4989273;28;20066;-80
2021/08/15 03:04:54;;;;;;;47.35;23.30;;;11.80;99.90;;;;;;4969330;28;20050;-80
2021/08/15 03:07:22;;;;;;;40.13;20.65;;;11.80;99.90;;;;;;4968552;28;20058;-79
2021/08/15 03:09:49;;;;;;;42.92;21.42;;;11.80;99.90;;;;;;5010402;28;20128;-80
2021/08/15 03:12:16;;;;;;;39.10;20.95;;;11.70;99.90;;;;;;5006056;28;20049;-80
2021/08/15 03:14:43;;;;;;;43.22;21.05;;;11.70;99.90;;;;;;4961232;28;20046;-80
2021/08/15 03:17:10;;;;;;;39.85;20.08;;;11.60;99.90;;;;;;5005041;28;20058;-80
2021/08/15 03:19:38;;;;;;;42.85;21.15;;;11.60;99.90;;;;;;4989422;28;20078;-81
2021/08/15 03:22:06;;;;;;;33.83;17.60;;;11.50;99.90;;;;;;4988963;28;20414;-79
2021/08/15 03:24:33;;;;;;;35.63;18.30;;;11.40;99.90;;;;;;4988513;28;20060;-79
2021/08/15 03:27:01;;;;;;;28.77;15.27;;;11.30;99.90;;;;;;4987922;28;20497;-79
2021/08/15 03:29:28;;;;;;;26.25;15.20;;;11.30;99.90;;;;;;4987360;28;20053;-80
2021/08/15 03:31:54;;;;;;;27.67;15.73;;;11.20;99.90;;;;;;4987747;28;20046;-79
2021/08/15 03:34:22;;;;;;;26.95;15.10;;;11.30;99.90;;;;;;4988860;28;20087;-80
2021/08/15 03:36:50;;;;;;;22.88;13.85;;;11.20;99.90;;;;;;5006178;28;20057;-79
2021/08/15 03:39:17;;;;;;;29.33;15.05;;;11.20;99.90;;;;;;4993085;28;20057;-81
2021/08/15 03:41:44;;;;;;;30.23;17.00;;;11.20;99.90;;;;;;5004798;28;20068;-78
2021/08/15 03:44:11;;;;;;;30.70;16.10;;;11.30;99.90;;;;;;5007170;28;20394;-79
2021/08/15 03:46:40;;;;;;;32.63;17.05;;;11.30;99.90;;;;;;5007665;28;20283;-79
2021/08/15 03:49:07;;;;;;;29.50;17.30;;;11.30;99.90;;;;;;5008281;28;20047;-79
2021/08/15 03:51:34;;;;;;;30.83;18.38;;;11.20;99.90;;;;;;4997782;28;20046;-79
2021/08/15 03:54:01;;;;;;;36.78;19.10;;;11.30;99.90;;;;;;5003904;28;20108;-79
2021/08/15 03:56:29;;;;;;;45.03;20.38;;;11.30;99.90;;;;;;4987500;28;20173;-79
2021/08/15 03:58:55;;;;;;;35.83;18.42;;;11.30;99.90;;;;;;5004468;28;20494;-79
2021/08/15 04:01:22;;;;;;;35.25;18.02;;;11.20;99.90;;;;;;4989520;28;20134;-79
2021/08/15 04:03:49;;;;;;;32.03;18.48;;;11.20;99.90;;;;;;4988345;28;20514;-79
2021/08/15 04:06:21;;;;;;;31.42;17.73;;;11.00;99.90;;;;;;5003576;28;20056;-79
2021/08/15 04:08:49;;;;;;;33.10;18.35;;;11.10;99.90;;;;;;5008503;28;20046;-78
2021/08/15 04:11:17;;;;;;;29.17;16.05;;;11.00;99.90;;;;;;5005555;28;20047;-79
2021/08/15 04:13:44;;;;;;;30.77;16.38;;;11.10;99.90;;;;;;4989509;28;20042;-79
2021/08/15 04:16:11;;;;;;;35.58;17.88;;;11.10;99.90;;;;;;4993797;28;20483;-79
2021/08/15 04:18:39;;;;;;;33.15;17.30;;;11.20;99.90;;;;;;5007952;28;20133;-80
2021/08/15 04:21:06;;;;;;;34.00;19.65;;;11.40;99.90;;;;;;5006119;28;20052;-80
2021/08/15 04:23:33;;;;;;;29.80;16.13;;;11.30;99.90;;;;;;4991446;28;20057;-80
2021/08/15 04:26:00;;;;;;;26.23;14.50;;;11.30;99.90;;;;;;4975366;28;20050;-80
2021/08/15 04:28:27;;;;;;;27.08;15.00;;;11.30;99.90;;;;;;4992109;28;20150;-79
2021/08/15 04:30:54;;;;;;;26.85;15.70;;;11.20;99.90;;;;;;4996663;28;20494;-79
2021/08/15 04:33:24;;;;;;;23.02;14.75;;;11.10;99.90;;;;;;5000162;28;20038;-79
2021/08/15 04:35:52;;;;;;;27.10;14.88;;;11.10;99.90;;;;;;4989215;28;20064;-79
2021/08/15 04:38:21;;;;;;;27.02;13.93;;;11.30;99.90;;;;;;4975398;28;20138;-79
2021/08/15 04:40:50;;;;;;;28.02;14.82;;;11.30;99.90;;;;;;4990226;28;20647;-79
2021/08/15 04:43:18;;;;;;;32.45;17.10;;;11.40;99.90;;;;;;4993711;28;20478;-79
2021/08/15 04:45:48;;;;;;;26.85;16.77;;;11.50;99.90;;;;;;5014876;28;20091;-80
2021/08/15 04:48:15;;;;;;;29.65;16.77;;;11.50;99.90;;;;;;4991337;28;20131;-79
2021/08/15 04:50:43;;;;;;;26.02;16.58;;;11.60;99.90;;;;;;5006331;28;20041;-79
2021/08/15 04:53:11;;;;;;;32.53;18.10;;;11.50;99.90;;;;;;4990336;28;20506;-80
2021/08/15 04:55:38;;;;;;;31.23;14.90;;;11.50;99.90;;;;;;5006269;28;20042;-79
2021/08/15 04:58:05;;;;;;;40.67;17.75;;;11.60;99.90;;;;;;4990579;28;20050;-79
2021/08/15 05:00:33;;;;;;;36.53;18.73;;;11.80;99.90;;;;;;4992979;28;20053;-79
2021/08/15 05:03:00;;;;;;;39.58;21.65;;;11.90;99.90;;;;;;5024833;28;20499;-79
2021/08/15 05:05:27;;;;;;;40.97;21.15;;;12.00;99.90;;;;;;4989822;28;20161;-80
2021/08/15 05:07:54;;;;;;;46.03;23.13;;;12.20;99.90;;;;;;4991349;28;20041;-80
2021/08/15 05:10:22;;;;;;;40.13;21.48;;;12.40;99.90;;;;;;4989275;28;20042;-80
2021/08/15 05:12:49;;;;;;;38.17;19.90;;;12.30;99.90;;;;;;5006256;28;20212;-80
2021/08/15 05:15:15;;;;;;;24.98;14.90;;;12.30;99.90;;;;;;4981270;28;20437;-79
2021/08/15 05:17:43;;;;;;;27.85;17.60;;;12.30;99.90;;;;;;5007145;28;20137;-79
2021/08/15 05:20:10;;;;;;;40.33;20.98;;;12.40;99.90;;;;;;4989518;28;20057;-79
2021/08/15 05:22:37;;;;;;;38.65;22.42;;;12.50;99.90;;;;;;4973664;28;20131;-80
2021/08/15 05:25:04;;;;;;;35.20;20.45;;;12.50;99.90;;;;;;5004974;28;20052;-80
2021/08/15 05:27:31;;;;;;;43.60;20.92;;;12.70;99.90;;;;;;4989630;28;20053;-80
2021/08/15 05:29:58;;;;;;;44.97;24.25;;;12.80;99.90;;;;;;4992377;28;20050;-80
2021/08/15 05:32:25;;;;;;;45.22;23.90;;;12.90;99.90;;;;;;4997205;28;20037;-79
2021/08/15 05:34:51;;;;;;;44.47;21.25;;;13.10;99.90;;;;;;4989760;28;20042;-79
2021/08/15 05:37:18;;;;;;;39.90;21.80;;;13.20;99.90;;;;;;4988803;28;20181;-80
2021/08/15 05:39:45;;;;;;;32.20;20.33;;;13.20;99.90;;;;;;4976335;28;20463;-81
2021/08/15 05:42:12;;;;;;;30.77;17.73;;;13.40;99.90;;;;;;4988413;28;20049;-79
2021/08/15 05:44:39;;;;;;;32.25;18.65;;;13.50;99.90;;;;;;5030007;28;20046;-80
2021/08/15 05:47:08;;;;;;;40.17;19.45;;;13.50;99.90;;;;;;5020684;28;20279;-80
2021/08/15 05:49:35;;;;;;;33.42;18.17;;;13.50;99.90;;;;;;5009487;28;20553;-80
2021/08/15 05:52:02;;;;;;;36.33;19.85;;;13.70;99.90;;;;;;5005857;28;20253;-79
2021/08/15 05:54:29;;;;;;;36.05;22.33;;;13.90;99.90;;;;;;4976795;28;20042;-79
2021/08/15 05:56:55;;;;;;;43.97;23.35;;;14.10;99.90;;;;;;4988901;28;20243;-79
2021/08/15 05:59:22;;;;;;;48.30;23.70;;;14.10;99.90;;;;;;4989230;28;20068;-80
2021/08/15 06:01:50;;;;;;;40.42;21.85;;;14.20;99.90;;;;;;5014127;28;20497;-81
2021/08/15 06:04:17;;;;;;;36.83;21.42;;;14.40;99.90;;;;;;4998022;28;20084;-79
2021/08/15 06:06:44;;;;;;;32.70;19.60;;;14.50;99.90;;;;;;4971821;28;20396;-80
2021/08/15 06:09:11;;;;;;;34.95;20.98;;;14.60;99.90;;;;;;4981411;28;20042;-79
2021/08/15 06:11:37;;;;;;;42.97;21.67;;;14.80;99.90;;;;;;5017624;28;20257;-80
2021/08/15 06:14:04;;;;;;;42.00;23.25;;;14.90;99.90;;;;;;4987086;28;20044;-80
2021/08/15 06:16:31;;;;;;;40.28;20.58;;;15.20;99.90;;;;;;4986666;28;20049;-79
2021/08/15 06:18:58;;;;;;;35.28;21.38;;;15.40;99.90;;;;;;4953293;28;20043;-80
2021/08/15 06:21:25;;;;;;;47.53;25.20;;;15.50;99.90;;;;;;4985059;28;20054;-80
2021/08/15 06:23:52;;;;;;;41.17;24.00;;;15.60;99.90;;;;;;4968909;28;20057;-80
2021/08/15 06:26:19;;;;;;;46.92;23.83;;;15.70;99.90;;;;;;4983437;28;20046;-82
2021/08/15 06:28:46;;;;;;;47.35;24.80;;;15.90;99.90;;;;;;4988728;28;20225;-80
2021/08/15 06:31:20;;;;;;;43.92;24.73;;;16.10;99.90;;;;;;4994650;28;20037;-80
2021/08/15 06:33:48;;;;;;;44.17;24.20;;;16.40;99.90;;;;;;4975546;28;20046;-79
2021/08/15 06:36:15;;;;;;;43.70;24.05;;;16.80;99.90;;;;;;5003357;28;20165;-80
2021/08/15 06:38:41;;;;;;;40.08;23.17;;;17.30;99.90;;;;;;4989644;28;20348;-80
2021/08/15 06:41:09;;;;;;;36.42;23.15;;;17.80;99.90;;;;;;4993609;28;20116;-80
2021/08/15 06:43:36;;;;;;;35.75;22.42;;;18.10;99.90;;;;;;4981147;28;20095;-80
2021/08/15 06:46:03;;;;;;;42.60;25.23;;;18.40;99.90;;;;;;4994638;28;20072;-80
2021/08/15 06:48:30;;;;;;;33.20;21.55;;;18.70;99.90;;;;;;4988111;28;20484;-81
2021/08/15 06:51:00;;;;;;;35.33;22.60;;;19.10;99.90;;;;;;4987602;28;20049;-81
2021/08/15 06:53:29;;;;;;;32.72;21.65;;;19.30;99.90;;;;;;5004985;28;20081;-80
2021/08/15 06:55:58;;;;;;;34.65;21.08;;;19.60;99.90;;;;;;4987126;28;20506;-81
2021/08/15 06:58:26;;;;;;;34.72;21.67;;;19.90;99.90;;;;;;4969180;28;20467;-80
2021/08/15 07:00:54;;;;;;;31.63;22.05;;;20.30;99.90;;;;;;4991486;28;20060;-80
2021/08/15 07:03:22;;;;;;;31.42;21.95;;;20.70;99.90;;;;;;5000589;28;20145;-80
2021/08/15 07:05:50;;;;;;;30.70;21.08;;;21.00;99.90;;;;;;5001074;28;20398;-81
2021/08/15 07:08:17;;;;;;;27.33;22.02;;;21.20;99.90;;;;;;5005641;28;20072;-80
2021/08/15 07:10:44;;;;;;;34.05;21.88;;;21.40;99.90;;;;;;5001250;28;20049;-80
2021/08/15 07:13:11;;;;;;;28.45;19.90;;;21.50;99.90;;;;;;4989784;28;20045;-80
2021/08/15 07:15:39;;;;;;;32.60;21.55;;;21.40;99.90;;;;;;4998410;28;20407;-80
2021/08/15 07:18:05;;;;;;;29.02;20.63;;;21.20;99.90;;;;;;5004654;28;20338;-80
2021/08/15 07:20:33;;;;;;;24.30;19.05;;;21.10;99.90;;;;;;4989355;28;20056;-80
2021/08/15 07:23:01;;;;;;;22.35;17.83;;;21.20;99.90;;;;;;4972264;28;20457;-80
2021/08/15 07:25:29;;;;;;;33.10;18.40;;;21.40;99.90;;;;;;4971031;28;20144;-80
2021/08/15 07:27:57;;;;;;;25.27;18.35;;;21.40;99.90;;;;;;5004579;28;20057;-80
2021/08/15 07:30:25;;;;;;;22.40;17.33;;;21.50;99.90;;;;;;4974146;28;20046;-80
2021/08/15 07:32:57;;;;;;;25.50;18.95;;;21.50;99.90;;;;;;4996654;28;20175;-80
2021/08/15 07:35:25;;;;;;;22.70;18.15;;;21.70;99.90;;;;;;5002747;28;20164;-80
2021/08/15 07:37:52;;;;;;;25.85;18.30;;;21.70;99.90;;;;;;4971084;28;20108;-80
2021/08/15 07:40:20;;;;;;;24.67;18.55;;;21.80;99.90;;;;;;4987277;28;20116;-80
2021/08/15 07:42:50;;;;;;;21.42;17.75;;;22.20;99.90;;;;;;4986209;28;20538;-81
2021/08/15 07:45:20;;;;;;;21.05;17.27;;;22.20;99.90;;;;;;4996932;28;20054;-81
2021/08/15 07:47:47;;;;;;;23.30;17.48;;;22.30;99.90;;;;;;4997571;28;20049;-81
2021/08/15 07:50:14;;;;;;;21.27;17.02;;;22.20;99.90;;;;;;4996902;28;20046;-80
2021/08/15 07:52:41;;;;;;;20.80;15.13;;;22.10;99.90;;;;;;5010923;28;20052;-80
2021/08/15 07:55:08;;;;;;;17.00;15.05;;;22.10;99.90;;;;;;5009686;28;20267;-81
2021/08/15 07:57:36;;;;;;;17.35;15.23;;;21.90;99.90;;;;;;4992307;28;20103;-80
2021/08/15 08:00:04;;;;;;;18.73;14.95;;;21.90;99.90;;;;;;5008325;28;20054;-80
2021/08/15 08:02:33;;;;;;;16.75;14.35;;;21.90;99.90;;;;;;4999642;28;20396;-81
2021/08/15 08:05:00;;;;;;;16.10;14.45;;;21.90;99.90;;;;;;4992420;28;20088;-80
2021/08/15 08:07:27;;;;;;;16.00;14.13;;;21.70;99.90;;;;;;4992465;28;20270;-80
2021/08/15 08:09:54;;;;;;;16.02;14.18;;;21.60;99.90;;;;;;5008948;28;20057;-80
2021/08/15 08:12:21;;;;;;;14.82;12.82;;;21.60;99.90;;;;;;4990061;28;20042;-80
2021/08/15 08:14:48;;;;;;;13.52;11.85;;;21.80;99.90;;;;;;4987669;28;20038;-80
2021/08/15 08:17:17;;;;;;;13.45;12.20;;;21.90;99.90;;;;;;4981214;28;20518;-80
2021/08/15 08:19:45;;;;;;;15.73;13.18;;;22.10;99.90;;;;;;5007940;28;20046;-80
2021/08/15 08:22:12;;;;;;;13.90;12.32;;;22.30;99.90;;;;;;5007978;28;20058;-81
2021/08/15 08:24:39;;;;;;;15.20;13.10;;;22.40;99.90;;;;;;4990775;28;20557;-80
2021/08/15 08:27:05;;;;;;;17.10;14.00;;;22.60;99.90;;;;;;4990554;28;20041;-80
2021/08/15 08:29:32;;;;;;;16.83;13.40;;;22.60;99.90;;;;;;4990987;28;20061;-80
2021/08/15 08:31:59;;;;;;;14.05;12.70;;;22.60;99.90;;;;;;4981668;28;20088;-80
2021/08/15 08:34:26;;;;;;;14.52;12.32;;;22.70;99.90;;;;;;5010952;28;20085;-80
2021/08/15 08:36:53;;;;;;;13.00;11.77;;;22.70;99.90;;;;;;5003176;28;20049;-80
2021/08/15 08:39:20;;;;;;;12.10;11.10;;;22.70;99.90;;;;;;4986022;28;20130;-80
2021/08/15 08:41:47;;;;;;;12.27;11.07;;;22.70;99.90;;;;;;4989592;28;20061;-81
2021/08/15 08:44:15;;;;;;;14.15;11.13;;;22.90;99.90;;;;;;4981829;28;20050;-80
2021/08/15 08:46:44;;;;;;;12.23;10.85;;;23.20;99.90;;;;;;4996451;28;20132;-80
2021/08/15 08:49:15;;;;;;;11.82;10.80;;;23.40;99.90;;;;;;4989773;28;20093;-81
2021/08/15 08:51:45;;;;;;;12.48;11.27;;;23.30;99.90;;;;;;4995954;28;20041;-79
2021/08/15 08:54:26;;;;;;;13.32;10.63;;;23.20;99.90;;;;;;4992931;28;20536;-81
2021/08/15 08:56:53;;;;;;;14.02;10.65;;;23.20;99.90;;;;;;5009663;28;20037;-80
2021/08/15 08:59:21;;;;;;;11.30;10.25;;;23.20;99.90;;;;;;4977118;28;20056;-81
2021/08/15 09:01:48;;;;;;;12.07;10.93;;;23.10;99.90;;;;;;5016295;28;20088;-80
2021/08/15 09:04:15;;;;;;;11.23;10.18;;;23.00;99.90;;;;;;5007544;28;20509;-80
2021/08/15 09:06:42;;;;;;;11.40;10.45;;;23.00;99.90;;;;;;5003113;28;20046;-80
2021/08/15 09:09:15;;;;;;;12.57;11.38;;;23.00;99.90;;;;;;5024947;28;20048;-80
2021/08/15 09:11:47;;;;;;;11.65;10.50;;;23.20;99.90;;;;;;4992202;28;20518;-80
2021/08/15 09:14:19;;;;;;;11.18;10.25;;;23.20;99.90;;;;;;4999002;28;20041;-80
2021/08/15 09:16:55;;;;;;;11.73;9.70;;;23.50;99.90;;;;;;4998208;28;20261;-80
2021/08/15 09:19:39;;;;;;;14.30;10.73;;;23.70;99.90;;;;;;5026668;28;20053;-80
2021/08/15 09:22:20;;;;;;;12.27;10.95;;;23.70;99.90;;;;;;4980577;28;20134;-80
2021/08/15 09:24:52;;;;;;;12.55;10.68;;;24.10;99.90;;;;;;5007584;28;20105;-81
2021/08/15 09:27:32;;;;;;;11.75;10.65;;;24.30;99.90;;;;;;4991424;28;20533;-80
2021/08/15 09:30:13;;;;;;;12.00;10.77;;;24.20;99.90;;;;;;5007729;28;20061;-81
2021/08/15 09:32:43;;;;;;;12.43;11.30;;;24.40;99.90;;;;;;5001074;28;20160;-80
2021/08/15 09:35:10;;;;;;;11.20;10.30;;;24.90;99.90;;;;;;5014793;28;20080;-80
2021/08/15 09:37:37;;;;;;;11.68;10.18;;;25.20;99.90;;;;;;5011610;28;20318;-78
2021/08/15 09:40:26;;;;;;;10.60;9.70;;;25.40;99.90;;;;;;5029368;28;20054;-79
2021/08/15 09:42:53;;;;;;;11.48;10.32;;;25.60;99.90;;;;;;5016184;28;20053;-79
2021/08/15 09:45:39;;;;;;;11.57;10.40;;;25.90;99.90;;;;;;4993030;28;20084;-80
2021/08/15 09:48:27;;;;;;;;;;;25.90;99.90;;;;;;4988654;28;20403;-80
2021/08/15 09:51:14;;;;;;;10.60;9.70;;;25.60;99.90;;;;;;5013728;28;19920;-80
2021/08/15 09:53:53;;;;;;;10.00;9.20;;;25.00;99.90;;;;;;5002787;28;20519;-79
2021/08/15 09:56:40;;;;;;;10.50;9.45;;;24.80;99.90;;;;;;5005974;28;20054;-80
2021/08/15 09:59:14;;;;;;;10.13;9.30;;;24.50;99.90;;;;;;4992578;28;20075;-80
2021/08/15 10:01:47;;;;;;;10.50;9.40;;;24.60;99.90;;;;;;4988974;28;20048;-80
2021/08/15 10:04:15;;;;;;;10.02;9.13;;;24.70;99.90;;;;;;5010080;28;20061;-79
2021/08/15 10:06:45;;;;;;;9.43;8.57;;;24.70;99.90;;;;;;5005730;28;20058;-79
2021/08/15 10:09:11;;;;;;;9.48;8.77;;;24.70;99.90;;;;;;5016631;28;20124;-80
2021/08/15 10:11:41;;;;;;;9.02;8.13;;;24.60;99.90;;;;;;4998908;28;20056;-80
2021/08/15 10:14:10;;;;;;;9.82;9.13;;;24.60;99.90;;;;;;4999542;28;20355;-81
2021/08/15 10:16:39;;;;;;;9.48;8.63;;;24.60;99.90;;;;;;5006810;28;20105;-82
2021/08/15 10:19:11;;;;;;;9.57;8.77;;;24.60;99.90;;;;;;5027816;28;20053;-80
2021/08/15 10:21:46;;;;;;;11.73;9.27;;;24.70;99.90;;;;;;5010207;28;20057;-80
2021/08/15 10:24:14;;;;;;;9.65;9.00;;;25.10;99.90;;;;;;5012274;28;20065;-80
2021/08/15 10:26:48;;;;;;;10.30;9.38;;;25.30;99.90;;;;;;4986797;28;20046;-81
2021/08/15 10:29:45;;;;;;;10.80;9.60;;;25.20;99.90;;;;;;5006613;28;20050;-80
2021/08/15 10:32:19;;;;;;;9.85;9.00;;;24.80;99.90;;;;;;5000336;28;20045;-81
2021/08/15 10:34:53;;;;;;;9.38;8.63;;;24.80;99.90;;;;;;4977687;28;20050;-81
2021/08/15 10:37:26;;;;;;;9.95;8.95;;;25.00;99.90;;;;;;4974547;28;20289;-81
2021/08/15 10:40:05;;;;;;;10.25;9.40;;;25.20;99.90;;;;;;4990221;28;20058;-81
2021/08/15 10:42:45;;;;;;;10.15;8.98;;;25.30;99.90;;;;;;4990511;28;20073;-81
2021/08/15 10:45:23;;;;;;;10.48;9.57;;;25.20;99.90;;;;;;5012992;28;20188;-81
2021/08/15 10:48:07;;;;;;;10.13;9.10;;;25.40;99.90;;;;;;4992245;28;20046;-81
2021/08/15 10:50:56;;;;;;;9.80;8.98;;;25.40;99.90;;;;;;4989426;28;20112;-82
2021/08/15 10:53:26;;;;;;;9.05;8.45;;;25.40;99.90;;;;;;5006726;28;20300;-80
2021/08/15 10:55:57;;;;;;;14.40;9.57;;;25.40;99.90;;;;;;4973042;28;20114;-81
2021/08/15 10:58:44;;;;;;;10.52;9.57;;;25.40;99.90;;;;;;4979154;28;20188;-80
2021/08/15 11:01:16;;;;;;;9.93;9.02;;;25.40;99.90;;;;;;5000787;28;20049;-82
2021/08/15 11:03:46;;;;;;;10.80;9.80;;;25.70;99.90;;;;;;5026094;28;20156;-81
2021/08/15 11:06:41;;;;;;;10.85;9.82;;;25.60;99.90;;;;;;5016585;28;20057;-81
2021/08/15 11:09:09;;;;;;;9.30;8.70;;;25.50;99.90;;;;;;5011806;28;20132;-80
2021/08/15 11:12:07;;;;;;;9.93;9.15;;;25.50;99.90;;;;;;5016466;28;20076;-82
2021/08/15 11:14:34;;;;;;;9.75;9.00;;;25.70;99.90;;;;;;4990515;28;20083;-81
2021/08/15 11:17:15;;;;;;;10.30;9.40;;;25.80;99.90;;;;;;4997047;28;20062;-80
2021/08/15 11:19:42;;;;;;;10.52;9.40;;;25.70;99.90;;;;;;5005049;28;20057;-81
2021/08/15 11:22:22;;;;;;;10.98;9.90;;;26.00;99.90;;;;;;4989954;28;20597;-82
2021/08/15 11:25:03;;;;;;;9.82;8.93;;;26.00;99.90;;;;;;4990042;28;20514;-81
2021/08/15 11:27:35;;;;;;;10.00;8.95;;;25.90;99.90;;;;;;4953679;28;20070;-80
2021/08/15 11:30:17;;;;;;;10.57;9.57;;;26.00;99.90;;;;;;4971099;28;20077;-81
2021/08/15 11:32:53;;;;;;;10.23;9.18;;;26.00;99.90;;;;;;4993986;28;20450;-81
2021/08/15 11:35:20;;;;;;;9.35;8.52;;;25.80;99.90;;;;;;5026101;28;20042;-81
2021/08/15 11:37:52;;;;;;;9.43;8.68;;;25.80;99.90;;;;;;5010303;28;20452;-81
2021/08/15 11:40:43;;;;;;;10.35;9.38;;;26.40;99.90;;;;;;5009672;28;20045;-82
2021/08/15 11:43:18;;;;;;;10.10;9.30;;;26.80;99.90;;;;;;5004629;28;20396;-81
2021/08/15 11:45:48;;;;;;;11.95;9.30;;;27.10;99.90;;;;;;5014518;28;20069;-82
2021/08/15 11:48:23;;;;;;;9.80;9.10;;;27.40;99.90;;;;;;4978234;28;20060;-81
2021/08/15 11:50:55;;;;;;;10.20;9.40;;;27.20;99.90;;;;;;5006503;28;20401;-80
2021/08/15 11:53:21;;;;;;;10.55;9.60;;;27.10;99.90;;;;;;5007125;28;20046;-81
2021/08/15 11:55:50;;;;;;;10.40;9.40;;;27.30;99.90;;;;;;4973987;28;20049;-80
2021/08/15 11:58:18;;;;;;;11.00;9.85;;;27.30;99.90;;;;;;4989775;28;20490;-81
2021/08/15 12:00:45;;;;;;;8.95;8.15;;;27.20;99.90;;;;;;4972148;28;20465;-80
2021/08/15 12:03:20;;;;;;;9.88;9.05;;;27.10;99.90;;;;;;4999987;28;20096;-81
2021/08/15 12:05:54;;;;;;;9.15;8.38;;;26.90;99.90;;;;;;4990542;28;20034;-81
2021/08/15 12:08:33;;;;;;;8.98;8.32;;;27.30;99.90;;;;;;4981683;28;20046;-81
2021/08/15 12:11:00;;;;;;;9.98;9.15;;;27.30;99.90;;;;;;4986033;28;20046;-81
2021/08/15 12:13:34;;;;;;;11.25;9.20;;;27.10;99.90;;;;;;4959822;28;20057;-81
2021/08/15 12:16:01;;;;;;;10.57;9.55;;;27.10;99.90;;;;;;4972258;28;20042;-82
2021/08/15 12:18:40;;;;;;;11.02;10.23;;;27.00;99.90;;;;;;4987402;28;20054;-79
2021/08/15 12:21:16;;;;;;;11.30;10.20;;;27.20;99.90;;;;;;4962644;28;20073;-81
2021/08/15 12:24:16;;;;;;;10.48;9.57;;;27.40;99.90;;;;;;4953405;28;20267;-80
2021/08/15 12:26:45;;;;;;;10.43;9.63;;;26.80;99.90;;;;;;4982344;28;20083;-81
2021/08/15 12:29:20;;;;;;;11.43;10.25;;;26.70;99.90;;;;;;4969561;28;20072;-83
2021/08/15 12:32:00;;;;;;;10.30;9.50;;;27.10;99.90;;;;;;4978763;28;20140;-81
2021/08/15 12:34:28;;;;;;;10.77;9.90;;;27.10;99.90;;;;;;4994570;28;20043;-80
2021/08/15 12:36:56;;;;;;;10.75;9.77;;;27.10;99.90;;;;;;4956097;28;20110;-80
2021/08/15 12:39:31;;;;;;;10.23;9.35;;;26.90;99.90;;;;;;4992575;28;20420;-83
2021/08/15 12:42:03;;;;;;;10.18;9.23;;;27.00;99.90;;;;;;4973078;28;20065;-81
2021/08/15 12:44:54;;;;;;;10.20;9.15;;;26.70;99.90;;;;;;4991461;28;20240;-81